sensor_id;sensor_type;location;lat;lon;timestamp;P1;durP1;ratioP1;P2;durP2;ratioP2
51732;SDS011;39139;53.144;6.244;2023-03-01T00:01:05;16.65;;;12.48;;
51732;SDS011;39139;53.144;6.244;2023-03-01T00:03:32;20.42;;;13.00;;
51732;SDS011;39139;53.144;6.244;2023-03-01T00:05:59;17.30;;;12.43;;
51732;SDS011;39139;53.144;6.244;2023-03-01T00:08:25;16.88;;;11.88;;
51732;SDS011;39139;53.144;6.244;2023-03-01T00:13:30;15.73;;;11.35;;
51732;SDS011;39139;53.144;6.244;2023-03-01T00:15:56;16.08;;;12.20;;
51732;SDS011;39139;53.144;6.244;2023-03-01T00:18:22;17.52;;;13.23;;
51732;SDS011;39139;53.144;6.244;2023-03-01T00:20:51;16.00;;;12.07;;
51732;SDS011;39139;53.144;6.244;2023-03-01T00:23:20;19.70;;;11.90;;
51732;SDS011;39139;53.144;6.244;2023-03-01T00:25:47;18.23;;;11.13;;
51732;SDS011;39139;53.144;6.244;2023-03-01T00:28:13;15.48;;;11.93;;
51732;SDS011;39139;53.144;6.244;2023-03-01T00:30:39;16.88;;;12.55;;
51732;SDS011;39139;53.144;6.244;2023-03-01T00:33:04;17.40;;;12.82;;
51732;SDS011;39139;53.144;6.244;2023-03-01T00:35:31;19.60;;;12.25;;
51732;SDS011;39139;53.144;6.244;2023-03-01T00:37:58;18.73;;;12.52;;
51732;SDS011;39139;53.144;6.244;2023-03-01T00:40:24;24.50;;;13.40;;
51732;SDS011;39139;53.144;6.244;2023-03-01T00:42:50;19.77;;;13.93;;
51732;SDS011;39139;53.144;6.244;2023-03-01T00:45:16;20.17;;;14.18;;
51732;SDS011;39139;53.144;6.244;2023-03-01T00:47:42;23.80;;;14.82;;
51732;SDS011;39139;53.144;6.244;2023-03-01T00:50:08;29.42;;;17.65;;
51732;SDS011;39139;53.144;6.244;2023-03-01T00:52:35;32.38;;;17.17;;
51732;SDS011;39139;53.144;6.244;2023-03-01T00:55:01;29.10;;;17.80;;
51732;SDS011;39139;53.144;6.244;2023-03-01T00:57:27;43.65;;;17.67;;
51732;SDS011;39139;53.144;6.244;2023-03-01T00:59:52;45.03;;;18.45;;
51732;SDS011;39139;53.144;6.244;2023-03-01T01:02:18;62.08;;;19.10;;
51732;SDS011;39139;53.144;6.244;2023-03-01T01:04:45;70.68;;;20.02;;
51732;SDS011;39139;53.144;6.244;2023-03-01T01:07:11;86.75;;;21.60;;
51732;SDS011;39139;53.144;6.244;2023-03-01T01:09:38;118.38;;;21.38;;
51732;SDS011;39139;53.144;6.244;2023-03-01T01:12:03;176.27;;;23.13;;
51732;SDS011;39139;53.144;6.244;2023-03-01T01:14:29;104.95;;;20.55;;
51732;SDS011;39139;53.144;6.244;2023-03-01T01:16:55;75.28;;;17.83;;
51732;SDS011;39139;53.144;6.244;2023-03-01T01:19:21;54.42;;;17.05;;
51732;SDS011;39139;53.144;6.244;2023-03-01T01:21:47;42.53;;;14.75;;
51732;SDS011;39139;53.144;6.244;2023-03-01T01:24:14;74.88;;;16.52;;
51732;SDS011;39139;53.144;6.244;2023-03-01T01:26:40;74.70;;;16.85;;
51732;SDS011;39139;53.144;6.244;2023-03-01T01:29:07;90.90;;;15.68;;
51732;SDS011;39139;53.144;6.244;2023-03-01T01:31:33;95.95;;;16.70;;
51732;SDS011;39139;53.144;6.244;2023-03-01T01:34:01;45.33;;;13.55;;
51732;SDS011;39139;53.144;6.244;2023-03-01T01:36:28;57.92;;;13.68;;
51732;SDS011;39139;53.144;6.244;2023-03-01T01:38:54;45.92;;;13.10;;
51732;SDS011;39139;53.144;6.244;2023-03-01T01:41:20;73.70;;;14.18;;
51732;SDS011;39139;53.144;6.244;2023-03-01T01:43:49;132.60;;;14.50;;
51732;SDS011;39139;53.144;6.244;2023-03-01T01:46:39;179.18;;;15.88;;
51732;SDS011;39139;53.144;6.244;2023-03-01T01:49:22;85.28;;;12.82;;
51732;SDS011;39139;53.144;6.244;2023-03-01T01:51:57;92.57;;;12.40;;
51732;SDS011;39139;53.144;6.244;2023-03-01T01:54:51;62.72;;;11.02;;
51732;SDS011;39139;53.144;6.244;2023-03-01T01:57:22;48.03;;;10.75;;
51732;SDS011;39139;53.144;6.244;2023-03-01T01:59:52;44.63;;;10.57;;
51732;SDS011;39139;53.144;6.244;2023-03-01T02:02:23;67.53;;;10.95;;
51732;SDS011;39139;53.144;6.244;2023-03-01T02:04:49;40.88;;;10.68;;
51732;SDS011;39139;53.144;6.244;2023-03-01T02:07:21;23.90;;;11.57;;
51732;SDS011;39139;53.144;6.244;2023-03-01T02:09:49;50.38;;;12.20;;
51732;SDS011;39139;53.144;6.244;2023-03-01T02:12:18;36.40;;;12.93;;
51732;SDS011;39139;53.144;6.244;2023-03-01T02:14:46;26.48;;;12.82;;
51732;SDS011;39139;53.144;6.244;2023-03-01T02:17:12;38.97;;;13.05;;
51732;SDS011;39139;53.144;6.244;2023-03-01T02:22:19;47.10;;;13.63;;
51732;SDS011;39139;53.144;6.244;2023-03-01T02:27:51;47.30;;;14.02;;
51732;SDS011;39139;53.144;6.244;2023-03-01T02:30:19;36.50;;;12.55;;
51732;SDS011;39139;53.144;6.244;2023-03-01T02:32:46;41.53;;;12.45;;
51732;SDS011;39139;53.144;6.244;2023-03-01T02:35:14;35.17;;;14.50;;
51732;SDS011;39139;53.144;6.244;2023-03-01T02:37:42;39.38;;;14.05;;
51732;SDS011;39139;53.144;6.244;2023-03-01T02:40:11;23.95;;;13.50;;
51732;SDS011;39139;53.144;6.244;2023-03-01T02:42:54;64.97;;;15.00;;
51732;SDS011;39139;53.144;6.244;2023-03-01T02:45:22;55.35;;;15.18;;
51732;SDS011;39139;53.144;6.244;2023-03-01T02:47:48;20.55;;;12.65;;
51732;SDS011;39139;53.144;6.244;2023-03-01T02:51:03;50.00;;;13.23;;
51732;SDS011;39139;53.144;6.244;2023-03-01T02:53:29;30.63;;;12.23;;
51732;SDS011;39139;53.144;6.244;2023-03-01T02:55:58;18.50;;;11.23;;
51732;SDS011;39139;53.144;6.244;2023-03-01T02:58:24;18.52;;;13.25;;
51732;SDS011;39139;53.144;6.244;2023-03-01T03:00:50;18.23;;;11.38;;
51732;SDS011;39139;53.144;6.244;2023-03-01T03:03:19;32.35;;;11.68;;
51732;SDS011;39139;53.144;6.244;2023-03-01T03:05:46;66.95;;;13.30;;
51732;SDS011;39139;53.144;6.244;2023-03-01T03:08:13;33.63;;;12.30;;
51732;SDS011;39139;53.144;6.244;2023-03-01T03:10:41;26.13;;;12.98;;
51732;SDS011;39139;53.144;6.244;2023-03-01T03:13:11;31.35;;;12.57;;
51732;SDS011;39139;53.144;6.244;2023-03-01T03:15:39;18.80;;;12.90;;
51732;SDS011;39139;53.144;6.244;2023-03-01T03:18:07;18.88;;;12.88;;
51732;SDS011;39139;53.144;6.244;2023-03-01T03:20:34;23.98;;;13.73;;
51732;SDS011;39139;53.144;6.244;2023-03-01T03:23:02;19.02;;;12.65;;
51732;SDS011;39139;53.144;6.244;2023-03-01T03:25:29;21.75;;;13.82;;
51732;SDS011;39139;53.144;6.244;2023-03-01T03:27:55;32.92;;;13.45;;
51732;SDS011;39139;53.144;6.244;2023-03-01T03:30:23;32.40;;;13.10;;
51732;SDS011;39139;53.144;6.244;2023-03-01T03:32:51;56.50;;;15.35;;
51732;SDS011;39139;53.144;6.244;2023-03-01T03:37:46;52.38;;;15.23;;
51732;SDS011;39139;53.144;6.244;2023-03-01T03:40:28;19.48;;;13.82;;
51732;SDS011;39139;53.144;6.244;2023-03-01T03:42:57;25.13;;;15.23;;
51732;SDS011;39139;53.144;6.244;2023-03-01T03:45:22;24.23;;;14.52;;
51732;SDS011;39139;53.144;6.244;2023-03-01T03:47:48;24.13;;;14.90;;
51732;SDS011;39139;53.144;6.244;2023-03-01T03:50:15;49.42;;;14.82;;
51732;SDS011;39139;53.144;6.244;2023-03-01T03:52:41;40.78;;;11.88;;
51732;SDS011;39139;53.144;6.244;2023-03-01T03:55:07;54.78;;;12.88;;
51732;SDS011;39139;53.144;6.244;2023-03-01T03:57:36;43.08;;;12.75;;
51732;SDS011;39139;53.144;6.244;2023-03-01T04:00:03;72.05;;;13.80;;
51732;SDS011;39139;53.144;6.244;2023-03-01T04:02:30;31.98;;;11.68;;
51732;SDS011;39139;53.144;6.244;2023-03-01T04:04:56;49.67;;;14.00;;
51732;SDS011;39139;53.144;6.244;2023-03-01T04:07:21;100.93;;;14.30;;
51732;SDS011;39139;53.144;6.244;2023-03-01T04:09:47;76.57;;;12.98;;
51732;SDS011;39139;53.144;6.244;2023-03-01T04:12:12;95.38;;;14.15;;
51732;SDS011;39139;53.144;6.244;2023-03-01T04:14:38;87.32;;;13.05;;
51732;SDS011;39139;53.144;6.244;2023-03-01T04:17:04;82.30;;;12.18;;
51732;SDS011;39139;53.144;6.244;2023-03-01T04:19:30;80.50;;;11.65;;
51732;SDS011;39139;53.144;6.244;2023-03-01T04:22:04;98.53;;;13.80;;
51732;SDS011;39139;53.144;6.244;2023-03-01T04:24:34;89.90;;;12.88;;
51732;SDS011;39139;53.144;6.244;2023-03-01T04:27:00;56.10;;;13.57;;
51732;SDS011;39139;53.144;6.244;2023-03-01T04:29:26;83.07;;;14.23;;
51732;SDS011;39139;53.144;6.244;2023-03-01T04:31:52;100.10;;;14.27;;
51732;SDS011;39139;53.144;6.244;2023-03-01T04:34:18;124.28;;;15.13;;
51732;SDS011;39139;53.144;6.244;2023-03-01T04:36:43;66.38;;;13.13;;
51732;SDS011;39139;53.144;6.244;2023-03-01T04:39:09;55.42;;;12.23;;
51732;SDS011;39139;53.144;6.244;2023-03-01T04:41:38;66.38;;;12.20;;
51732;SDS011;39139;53.144;6.244;2023-03-01T04:44:04;55.80;;;11.85;;
51732;SDS011;39139;53.144;6.244;2023-03-01T04:46:31;62.10;;;13.27;;
51732;SDS011;39139;53.144;6.244;2023-03-01T04:48:56;69.65;;;12.30;;
51732;SDS011;39139;53.144;6.244;2023-03-01T04:51:22;116.65;;;14.10;;
51732;SDS011;39139;53.144;6.244;2023-03-01T04:53:48;42.10;;;11.35;;
51732;SDS011;39139;53.144;6.244;2023-03-01T04:56:14;36.72;;;12.63;;
51732;SDS011;39139;53.144;6.244;2023-03-01T04:58:40;51.20;;;12.60;;
51732;SDS011;39139;53.144;6.244;2023-03-01T05:01:15;37.67;;;11.70;;
51732;SDS011;39139;53.144;6.244;2023-03-01T05:03:44;51.15;;;12.68;;
51732;SDS011;39139;53.144;6.244;2023-03-01T05:06:14;48.92;;;12.07;;
51732;SDS011;39139;53.144;6.244;2023-03-01T05:08:41;70.68;;;12.82;;
51732;SDS011;39139;53.144;6.244;2023-03-01T05:11:07;67.93;;;13.88;;
51732;SDS011;39139;53.144;6.244;2023-03-01T05:13:34;95.32;;;15.27;;
51732;SDS011;39139;53.144;6.244;2023-03-01T05:16:01;71.45;;;13.35;;
51732;SDS011;39139;53.144;6.244;2023-03-01T05:18:28;88.95;;;13.68;;
51732;SDS011;39139;53.144;6.244;2023-03-01T05:20:56;31.08;;;12.50;;
51732;SDS011;39139;53.144;6.244;2023-03-01T05:23:29;71.97;;;14.18;;
51732;SDS011;39139;53.144;6.244;2023-03-01T05:25:57;63.17;;;12.98;;
51732;SDS011;39139;53.144;6.244;2023-03-01T05:28:27;47.70;;;13.95;;
51732;SDS011;39139;53.144;6.244;2023-03-01T05:30:53;32.17;;;12.90;;
51732;SDS011;39139;53.144;6.244;2023-03-01T05:33:19;37.83;;;12.55;;
51732;SDS011;39139;53.144;6.244;2023-03-01T05:35:47;42.30;;;14.27;;
51732;SDS011;39139;53.144;6.244;2023-03-01T05:38:14;46.47;;;13.63;;
51732;SDS011;39139;53.144;6.244;2023-03-01T05:40:41;24.52;;;12.90;;
51732;SDS011;39139;53.144;6.244;2023-03-01T05:43:11;48.28;;;12.45;;
51732;SDS011;39139;53.144;6.244;2023-03-01T05:45:39;24.42;;;11.80;;
51732;SDS011;39139;53.144;6.244;2023-03-01T05:48:06;25.77;;;13.70;;
51732;SDS011;39139;53.144;6.244;2023-03-01T05:50:33;39.22;;;13.80;;
51732;SDS011;39139;53.144;6.244;2023-03-01T05:53:09;20.02;;;12.02;;
51732;SDS011;39139;53.144;6.244;2023-03-01T05:55:36;25.23;;;13.05;;
51732;SDS011;39139;53.144;6.244;2023-03-01T05:58:03;22.33;;;13.68;;
51732;SDS011;39139;53.144;6.244;2023-03-01T06:00:31;18.70;;;12.10;;
51732;SDS011;39139;53.144;6.244;2023-03-01T06:02:57;19.90;;;12.23;;
51732;SDS011;39139;53.144;6.244;2023-03-01T06:05:23;18.67;;;12.02;;
51732;SDS011;39139;53.144;6.244;2023-03-01T06:07:49;21.88;;;11.93;;
51732;SDS011;39139;53.144;6.244;2023-03-01T06:10:15;18.50;;;12.13;;
51732;SDS011;39139;53.144;6.244;2023-03-01T06:12:43;19.05;;;11.38;;
51732;SDS011;39139;53.144;6.244;2023-03-01T06:15:13;18.33;;;11.77;;
51732;SDS011;39139;53.144;6.244;2023-03-01T06:17:41;17.67;;;10.70;;
51732;SDS011;39139;53.144;6.244;2023-03-01T06:20:16;19.00;;;11.60;;
51732;SDS011;39139;53.144;6.244;2023-03-01T06:22:47;19.83;;;11.68;;
51732;SDS011;39139;53.144;6.244;2023-03-01T06:25:15;15.52;;;10.68;;
51732;SDS011;39139;53.144;6.244;2023-03-01T06:27:42;19.08;;;11.73;;
51732;SDS011;39139;53.144;6.244;2023-03-01T06:30:08;18.33;;;11.40;;
51732;SDS011;39139;53.144;6.244;2023-03-01T06:32:37;18.97;;;11.53;;
51732;SDS011;39139;53.144;6.244;2023-03-01T06:37:33;14.52;;;10.32;;
51732;SDS011;39139;53.144;6.244;2023-03-01T06:40:00;14.90;;;10.35;;
51732;SDS011;39139;53.144;6.244;2023-03-01T06:42:31;16.13;;;10.63;;
51732;SDS011;39139;53.144;6.244;2023-03-01T06:44:57;17.35;;;11.57;;
51732;SDS011;39139;53.144;6.244;2023-03-01T06:47:23;18.02;;;11.68;;
51732;SDS011;39139;53.144;6.244;2023-03-01T06:49:48;19.85;;;10.50;;
51732;SDS011;39139;53.144;6.244;2023-03-01T06:52:14;15.05;;;10.57;;
51732;SDS011;39139;53.144;6.244;2023-03-01T06:54:40;13.07;;;9.65;;
51732;SDS011;39139;53.144;6.244;2023-03-01T06:57:05;15.75;;;9.65;;
51732;SDS011;39139;53.144;6.244;2023-03-01T06:59:31;14.48;;;10.25;;
51732;SDS011;39139;53.144;6.244;2023-03-01T07:01:56;15.45;;;10.73;;
51732;SDS011;39139;53.144;6.244;2023-03-01T07:04:22;15.73;;;10.60;;
51732;SDS011;39139;53.144;6.244;2023-03-01T07:06:47;18.98;;;10.38;;
51732;SDS011;39139;53.144;6.244;2023-03-01T07:09:20;16.13;;;10.57;;
51732;SDS011;39139;53.144;6.244;2023-03-01T07:11:48;14.98;;;10.43;;
51732;SDS011;39139;53.144;6.244;2023-03-01T07:14:15;13.80;;;10.05;;
51732;SDS011;39139;53.144;6.244;2023-03-01T07:16:40;17.27;;;10.32;;
51732;SDS011;39139;53.144;6.244;2023-03-01T07:19:06;16.13;;;10.50;;
51732;SDS011;39139;53.144;6.244;2023-03-01T07:21:32;15.88;;;10.25;;
51732;SDS011;39139;53.144;6.244;2023-03-01T07:23:57;29.95;;;16.27;;
51732;SDS011;39139;53.144;6.244;2023-03-01T07:26:23;37.63;;;19.88;;
51732;SDS011;39139;53.144;6.244;2023-03-01T07:28:48;22.85;;;14.95;;
51732;SDS011;39139;53.144;6.244;2023-03-01T07:31:14;20.88;;;12.48;;
51732;SDS011;39139;53.144;6.244;2023-03-01T07:33:40;16.33;;;11.93;;
51732;SDS011;39139;53.144;6.244;2023-03-01T07:36:06;14.90;;;10.93;;
51732;SDS011;39139;53.144;6.244;2023-03-01T07:38:32;16.48;;;12.25;;
51732;SDS011;39139;53.144;6.244;2023-03-01T07:41:02;16.70;;;12.35;;
51732;SDS011;39139;53.144;6.244;2023-03-01T07:43:29;20.40;;;13.88;;
51732;SDS011;39139;53.144;6.244;2023-03-01T07:45:57;19.83;;;14.10;;
51732;SDS011;39139;53.144;6.244;2023-03-01T07:48:24;21.08;;;13.98;;
51732;SDS011;39139;53.144;6.244;2023-03-01T07:50:50;24.80;;;16.73;;
51732;SDS011;39139;53.144;6.244;2023-03-01T07:53:15;28.98;;;18.90;;
51732;SDS011;39139;53.144;6.244;2023-03-01T07:55:41;29.85;;;19.33;;
51732;SDS011;39139;53.144;6.244;2023-03-01T07:58:07;27.60;;;19.40;;
51732;SDS011;39139;53.144;6.244;2023-03-01T08:00:32;28.42;;;20.80;;
51732;SDS011;39139;53.144;6.244;2023-03-01T08:02:58;39.83;;;21.98;;
51732;SDS011;39139;53.144;6.244;2023-03-01T08:05:25;27.83;;;20.17;;
51732;SDS011;39139;53.144;6.244;2023-03-01T08:07:52;27.58;;;19.90;;
51732;SDS011;39139;53.144;6.244;2023-03-01T08:10:18;27.33;;;20.05;;
51732;SDS011;39139;53.144;6.244;2023-03-01T08:12:44;33.00;;;23.60;;
51732;SDS011;39139;53.144;6.244;2023-03-01T08:15:09;34.75;;;24.05;;
51732;SDS011;39139;53.144;6.244;2023-03-01T08:17:35;30.35;;;24.98;;
51732;SDS011;39139;53.144;6.244;2023-03-01T08:20:01;35.50;;;24.80;;
51732;SDS011;39139;53.144;6.244;2023-03-01T08:22:29;27.90;;;22.42;;
51732;SDS011;39139;53.144;6.244;2023-03-01T08:24:54;27.27;;;22.30;;
51732;SDS011;39139;53.144;6.244;2023-03-01T08:27:21;29.85;;;21.63;;
51732;SDS011;39139;53.144;6.244;2023-03-01T08:29:46;26.60;;;20.40;;
51732;SDS011;39139;53.144;6.244;2023-03-01T08:32:12;25.85;;;18.95;;
51732;SDS011;39139;53.144;6.244;2023-03-01T08:34:37;23.83;;;18.40;;
51732;SDS011;39139;53.144;6.244;2023-03-01T08:37:03;28.95;;;20.10;;
51732;SDS011;39139;53.144;6.244;2023-03-01T08:39:29;30.67;;;19.40;;
51732;SDS011;39139;53.144;6.244;2023-03-01T08:41:54;27.30;;;22.02;;
51732;SDS011;39139;53.144;6.244;2023-03-01T08:44:20;30.60;;;23.25;;
51732;SDS011;39139;53.144;6.244;2023-03-01T08:46:46;28.70;;;21.38;;
51732;SDS011;39139;53.144;6.244;2023-03-01T08:49:13;26.25;;;20.77;;
51732;SDS011;39139;53.144;6.244;2023-03-01T08:51:40;24.75;;;20.40;;
51732;SDS011;39139;53.144;6.244;2023-03-01T08:54:09;28.08;;;21.05;;
51732;SDS011;39139;53.144;6.244;2023-03-01T08:56:36;22.95;;;19.58;;
51732;SDS011;39139;53.144;6.244;2023-03-01T08:59:02;22.45;;;20.02;;
51732;SDS011;39139;53.144;6.244;2023-03-01T09:01:28;24.63;;;20.92;;
51732;SDS011;39139;53.144;6.244;2023-03-01T09:03:54;24.75;;;20.40;;
51732;SDS011;39139;53.144;6.244;2023-03-01T09:06:19;24.50;;;21.08;;
51732;SDS011;39139;53.144;6.244;2023-03-01T09:08:46;27.27;;;21.90;;
51732;SDS011;39139;53.144;6.244;2023-03-01T09:11:14;26.15;;;20.38;;
51732;SDS011;39139;53.144;6.244;2023-03-01T09:13:42;23.45;;;20.88;;
51732;SDS011;39139;53.144;6.244;2023-03-01T09:16:08;23.30;;;20.92;;
51732;SDS011;39139;53.144;6.244;2023-03-01T09:18:36;24.67;;;21.65;;
51732;SDS011;39139;53.144;6.244;2023-03-01T09:21:09;22.85;;;20.48;;
51732;SDS011;39139;53.144;6.244;2023-03-01T09:23:43;23.42;;;20.40;;
51732;SDS011;39139;53.144;6.244;2023-03-01T09:26:11;24.58;;;20.80;;
51732;SDS011;39139;53.144;6.244;2023-03-01T09:28:39;24.02;;;19.98;;
51732;SDS011;39139;53.144;6.244;2023-03-01T09:31:09;23.60;;;20.42;;
51732;SDS011;39139;53.144;6.244;2023-03-01T09:33:37;23.85;;;21.55;;
51732;SDS011;39139;53.144;6.244;2023-03-01T09:36:05;23.75;;;21.10;;
51732;SDS011;39139;53.144;6.244;2023-03-01T09:38:33;25.38;;;19.67;;
51732;SDS011;39139;53.144;6.244;2023-03-01T09:40:59;22.92;;;20.42;;
51732;SDS011;39139;53.144;6.244;2023-03-01T09:46:19;23.05;;;19.10;;
51732;SDS011;39139;53.144;6.244;2023-03-01T09:48:57;20.87;;;18.77;;
51732;SDS011;39139;53.144;6.244;2023-03-01T09:51:31;21.25;;;18.92;;
51732;SDS011;39139;53.144;6.244;2023-03-01T09:54:00;19.38;;;16.85;;
51732;SDS011;39139;53.144;6.244;2023-03-01T09:56:41;16.50;;;14.43;;
51732;SDS011;39139;53.144;6.244;2023-03-01T09:59:25;14.35;;;12.85;;
51732;SDS011;39139;53.144;6.244;2023-03-01T10:09:51;15.57;;;12.82;;
51732;SDS011;39139;53.144;6.244;2023-03-01T10:12:18;16.35;;;12.18;;
51732;SDS011;39139;53.144;6.244;2023-03-01T10:15:02;13.88;;;12.30;;
51732;SDS011;39139;53.144;6.244;2023-03-01T10:22:42;15.13;;;11.82;;
51732;SDS011;39139;53.144;6.244;2023-03-01T10:25:13;10.93;;;9.70;;
51732;SDS011;39139;53.144;6.244;2023-03-01T10:30:22;11.85;;;10.68;;
51732;SDS011;39139;53.144;6.244;2023-03-01T10:33:00;17.60;;;12.30;;
51732;SDS011;39139;53.144;6.244;2023-03-01T10:35:29;16.13;;;12.40;;
51732;SDS011;39139;53.144;6.244;2023-03-01T10:38:12;14.35;;;12.95;;
51732;SDS011;39139;53.144;6.244;2023-03-01T10:40:57;14.25;;;12.93;;
51732;SDS011;39139;53.144;6.244;2023-03-01T10:49:06;13.15;;;11.85;;
51732;SDS011;39139;53.144;6.244;2023-03-01T10:51:49;13.20;;;10.43;;
51732;SDS011;39139;53.144;6.244;2023-03-01T10:54:23;13.25;;;9.73;;
51732;SDS011;39139;53.144;6.244;2023-03-01T10:56:53;13.38;;;12.00;;
51732;SDS011;39139;53.144;6.244;2023-03-01T10:59:28;17.02;;;12.90;;
51732;SDS011;39139;53.144;6.244;2023-03-01T11:05:27;18.17;;;12.15;;
51732;SDS011;39139;53.144;6.244;2023-03-01T11:07:28;9.70;;;8.85;;
51732;SDS011;39139;53.144;6.244;2023-03-01T11:09:54;12.27;;;10.57;;
51732;SDS011;39139;53.144;6.244;2023-03-01T11:12:20;12.10;;;10.88;;
51732;SDS011;39139;53.144;6.244;2023-03-01T11:14:53;13.55;;;11.95;;
51732;SDS011;39139;53.144;6.244;2023-03-01T11:17:29;12.43;;;11.00;;
51732;SDS011;39139;53.144;6.244;2023-03-01T11:22:48;14.90;;;12.48;;
51732;SDS011;39139;53.144;6.244;2023-03-01T11:25:17;12.40;;;10.55;;
51732;SDS011;39139;53.144;6.244;2023-03-01T11:30:15;13.35;;;11.68;;
51732;SDS011;39139;53.144;6.244;2023-03-01T11:32:47;16.08;;;13.30;;
51732;SDS011;39139;53.144;6.244;2023-03-01T11:35:25;15.60;;;13.38;;
51732;SDS011;39139;53.144;6.244;2023-03-01T11:40:39;14.48;;;13.02;;
51732;SDS011;39139;53.144;6.244;2023-03-01T11:51:15;17.35;;;13.70;;
51732;SDS011;39139;53.144;6.244;2023-03-01T11:56:32;16.40;;;14.23;;
51732;SDS011;39139;53.144;6.244;2023-03-01T12:02:02;16.00;;;13.77;;
51732;SDS011;39139;53.144;6.244;2023-03-01T12:08:12;14.45;;;12.43;;
51732;SDS011;39139;53.144;6.244;2023-03-01T12:14:19;13.60;;;11.70;;
51732;SDS011;39139;53.144;6.244;2023-03-01T12:19:11;14.00;;;12.57;;
51732;SDS011;39139;53.144;6.244;2023-03-01T12:24:37;17.33;;;14.13;;
51732;SDS011;39139;53.144;6.244;2023-03-01T12:27:36;17.80;;;14.02;;
51732;SDS011;39139;53.144;6.244;2023-03-01T12:35:45;14.43;;;11.85;;
51732;SDS011;39139;53.144;6.244;2023-03-01T12:39:13;14.65;;;11.35;;
51732;SDS011;39139;53.144;6.244;2023-03-01T12:41:35;14.93;;;11.93;;
51732;SDS011;39139;53.144;6.244;2023-03-01T12:49:16;13.32;;;12.02;;
51732;SDS011;39139;53.144;6.244;2023-03-01T12:54:43;15.27;;;11.38;;
51732;SDS011;39139;53.144;6.244;2023-03-01T13:08:29;15.05;;;11.43;;
51732;SDS011;39139;53.144;6.244;2023-03-01T13:11:16;14.15;;;12.02;;
51732;SDS011;39139;53.144;6.244;2023-03-01T13:13:44;13.85;;;11.40;;
51732;SDS011;39139;53.144;6.244;2023-03-01T13:21:44;12.95;;;10.95;;
51732;SDS011;39139;53.144;6.244;2023-03-01T13:27:20;14.48;;;10.85;;
51732;SDS011;39139;53.144;6.244;2023-03-01T13:29:53;13.18;;;10.57;;
51732;SDS011;39139;53.144;6.244;2023-03-01T13:34:56;14.43;;;10.85;;
51732;SDS011;39139;53.144;6.244;2023-03-01T13:37:24;13.23;;;11.07;;
51732;SDS011;39139;53.144;6.244;2023-03-01T13:39:51;12.20;;;9.95;;
51732;SDS011;39139;53.144;6.244;2023-03-01T13:44:52;12.63;;;11.05;;
51732;SDS011;39139;53.144;6.244;2023-03-01T13:47:18;15.98;;;12.05;;
51732;SDS011;39139;53.144;6.244;2023-03-01T13:49:48;13.32;;;10.88;;
51732;SDS011;39139;53.144;6.244;2023-03-01T13:52:24;13.65;;;11.05;;
51732;SDS011;39139;53.144;6.244;2023-03-01T13:57:38;13.55;;;11.02;;
51732;SDS011;39139;53.144;6.244;2023-03-01T14:00:06;13.20;;;10.32;;
51732;SDS011;39139;53.144;6.244;2023-03-01T14:02:59;12.77;;;10.55;;
51732;SDS011;39139;53.144;6.244;2023-03-01T14:08:17;14.27;;;10.48;;
51732;SDS011;39139;53.144;6.244;2023-03-01T14:10:54;11.20;;;9.40;;
51732;SDS011;39139;53.144;6.244;2023-03-01T14:16:17;11.65;;;9.77;;
51732;SDS011;39139;53.144;6.244;2023-03-01T14:18:58;12.93;;;11.65;;
51732;SDS011;39139;53.144;6.244;2023-03-01T14:21:42;12.23;;;10.18;;
51732;SDS011;39139;53.144;6.244;2023-03-01T14:24:18;11.43;;;9.65;;
51732;SDS011;39139;53.144;6.244;2023-03-01T14:26:46;11.20;;;8.45;;
51732;SDS011;39139;53.144;6.244;2023-03-01T14:29:25;18.17;;;9.07;;
51732;SDS011;39139;53.144;6.244;2023-03-01T14:32:10;12.07;;;10.82;;
51732;SDS011;39139;53.144;6.244;2023-03-01T14:34:56;15.68;;;10.85;;
51732;SDS011;39139;53.144;6.244;2023-03-01T14:39:53;10.68;;;9.63;;
51732;SDS011;39139;53.144;6.244;2023-03-01T14:42:21;12.27;;;9.75;;
51732;SDS011;39139;53.144;6.244;2023-03-01T14:44:49;14.32;;;10.65;;
51732;SDS011;39139;53.144;6.244;2023-03-01T14:47:27;12.43;;;10.10;;
51732;SDS011;39139;53.144;6.244;2023-03-01T14:49:59;15.48;;;11.82;;
51732;SDS011;39139;53.144;6.244;2023-03-01T14:52:46;13.97;;;11.33;;
51732;SDS011;39139;53.144;6.244;2023-03-01T14:55:16;15.60;;;11.20;;
51732;SDS011;39139;53.144;6.244;2023-03-01T14:57:44;13.02;;;10.35;;
51732;SDS011;39139;53.144;6.244;2023-03-01T15:00:16;12.40;;;10.38;;
51732;SDS011;39139;53.144;6.244;2023-03-01T15:03:06;15.47;;;10.77;;
51732;SDS011;39139;53.144;6.244;2023-03-01T15:05:38;14.60;;;10.93;;
51732;SDS011;39139;53.144;6.244;2023-03-01T15:08:05;11.35;;;10.07;;
51732;SDS011;39139;53.144;6.244;2023-03-01T15:10:32;13.68;;;10.38;;
51732;SDS011;39139;53.144;6.244;2023-03-01T15:15:48;10.98;;;9.63;;
51732;SDS011;39139;53.144;6.244;2023-03-01T15:18:17;12.43;;;10.02;;
51732;SDS011;39139;53.144;6.244;2023-03-01T15:20:45;14.07;;;10.82;;
51732;SDS011;39139;53.144;6.244;2023-03-01T15:23:17;13.75;;;10.20;;
51732;SDS011;39139;53.144;6.244;2023-03-01T15:25:52;15.23;;;12.07;;
51732;SDS011;39139;53.144;6.244;2023-03-01T15:28:29;15.30;;;12.82;;
51732;SDS011;39139;53.144;6.244;2023-03-01T15:31:02;11.25;;;9.98;;
51732;SDS011;39139;53.144;6.244;2023-03-01T15:33:37;15.13;;;11.15;;
51732;SDS011;39139;53.144;6.244;2023-03-01T15:36:49;17.98;;;12.23;;
51732;SDS011;39139;53.144;6.244;2023-03-01T15:38:59;14.50;;;11.85;;
51732;SDS011;39139;53.144;6.244;2023-03-01T15:41:30;15.13;;;12.23;;
51732;SDS011;39139;53.144;6.244;2023-03-01T15:43:58;15.10;;;11.75;;
51732;SDS011;39139;53.144;6.244;2023-03-01T15:46:26;16.48;;;12.07;;
51732;SDS011;39139;53.144;6.244;2023-03-01T15:48:56;16.58;;;11.70;;
51732;SDS011;39139;53.144;6.244;2023-03-01T15:51:36;14.68;;;12.68;;
51732;SDS011;39139;53.144;6.244;2023-03-01T15:54:14;13.57;;;11.43;;
51732;SDS011;39139;53.144;6.244;2023-03-01T15:56:46;17.48;;;13.50;;
51732;SDS011;39139;53.144;6.244;2023-03-01T15:59:12;17.33;;;12.75;;
51732;SDS011;39139;53.144;6.244;2023-03-01T16:01:39;16.23;;;11.85;;
51732;SDS011;39139;53.144;6.244;2023-03-01T16:06:41;17.35;;;12.32;;
51732;SDS011;39139;53.144;6.244;2023-03-01T16:09:07;16.85;;;11.60;;
51732;SDS011;39139;53.144;6.244;2023-03-01T16:11:32;15.55;;;12.32;;
51732;SDS011;39139;53.144;6.244;2023-03-01T16:14:01;15.23;;;12.18;;
51732;SDS011;39139;53.144;6.244;2023-03-01T16:16:27;15.75;;;12.02;;
51732;SDS011;39139;53.144;6.244;2023-03-01T16:18:53;16.65;;;12.02;;
51732;SDS011;39139;53.144;6.244;2023-03-01T16:21:21;18.13;;;12.13;;
51732;SDS011;39139;53.144;6.244;2023-03-01T16:23:49;19.15;;;13.05;;
51732;SDS011;39139;53.144;6.244;2023-03-01T16:26:16;15.70;;;12.57;;
51732;SDS011;39139;53.144;6.244;2023-03-01T16:28:42;16.67;;;12.75;;
51732;SDS011;39139;53.144;6.244;2023-03-01T16:31:08;16.60;;;12.45;;
51732;SDS011;39139;53.144;6.244;2023-03-01T16:33:34;19.17;;;12.57;;
51732;SDS011;39139;53.144;6.244;2023-03-01T16:36:01;19.60;;;14.10;;
51732;SDS011;39139;53.144;6.244;2023-03-01T16:38:31;14.50;;;12.50;;
51732;SDS011;39139;53.144;6.244;2023-03-01T16:40:57;17.30;;;13.02;;
51732;SDS011;39139;53.144;6.244;2023-03-01T16:43:23;18.77;;;14.07;;